NWS1949 UUEE-LYBE
Flight info
| Callsign | NWS1949 |
|---|---|
| Flight time | N/A |
| Altitude | 34000 |
| Route | LIDRI3H LIDRI T781 REPNU N609 DURTI L29 LEGSI M984 LETKI/N0447F340 DCT VADOL DCT REGTO DCT PARAK DCT TISAK TISA3C |
| Aircraft | A321/M-SDFGHIRWY/LB1 |
Departure
| Time | 2026-05-04 10:57 |
|---|---|
| Airport | Sheremetyevo International Airport (UUEE) |
Arrival
| Time | N/A |
|---|---|
| Airport | Belgrade Nikola Tesla Airport (LYBE) |
| Time | Latitude | Longitude | Altitude | Speed | Heading |
|---|---|---|---|---|---|
| 2026-05-04 10:36 | 55.97870 | 37.41000 | 644 ft | 0 kts | 76° |
| 2026-05-04 10:49 | 55.97865 | 37.40839 | 646 ft | 0 kts | 165° |
| 2026-05-04 10:54 | 55.97582 | 37.41500 | 644 ft | 22 kts | 75° |
| 2026-05-04 10:54 | 55.97625 | 37.41791 | 645 ft | 27 kts | 75° |
| 2026-05-04 10:56 | 55.97612 | 37.42801 | 644 ft | 17 kts | 216° |
| 2026-05-04 10:56 | 55.97576 | 37.42664 | 646 ft | 22 kts | 256° |
| 2026-05-04 10:56 | 55.97528 | 37.42311 | 646 ft | 52 kts | 255° |
| 2026-05-04 10:57 | 55.97368 | 37.41245 | 647 ft | 123 kts | 255° |
| 2026-05-04 10:57 | 55.97101 | 37.39447 | 766 ft | 165 kts | 255° |
| 2026-05-04 10:57 | 55.96698 | 37.36937 | 1898 ft | 151 kts | 253° |
| 2026-05-04 10:57 | 55.96380 | 37.35112 | 2428 ft | 153 kts | 255° |
| 2026-05-04 10:58 | 55.96185 | 37.33887 | 2799 ft | 151 kts | 257° |
| 2026-05-04 10:58 | 55.95903 | 37.32039 | 3254 ft | 157 kts | 256° |
| 2026-05-04 10:58 | 55.95608 | 37.30161 | 3766 ft | 158 kts | 256° |
| 2026-05-04 10:58 | 55.95306 | 37.28197 | 4035 ft | 175 kts | 256° |
| 2026-05-04 10:59 | 55.94968 | 37.26016 | 4341 ft | 190 kts | 255° |
| 2026-05-04 10:59 | 55.94594 | 37.23643 | 4643 ft | 209 kts | 255° |
| 2026-05-04 10:59 | 55.94180 | 37.21000 | 4917 ft | 230 kts | 256° |
| 2026-05-04 10:59 | 55.93732 | 37.18156 | 5301 ft | 246 kts | 256° |
| 2026-05-04 11:00 | 55.93261 | 37.15168 | 5858 ft | 253 kts | 256° |
| 2026-05-04 11:01 | 55.91020 | 36.92941 | 10260 ft | 272 kts | 273° |
| 2026-05-04 11:02 | 55.91066 | 36.89562 | 10879 ft | 274 kts | 272° |
| 2026-05-04 11:02 | 55.91089 | 36.86146 | 11415 ft | 280 kts | 270° |
| 2026-05-04 11:05 | 55.89049 | 36.25441 | 17211 ft | 380 kts | 267° |
| 2026-05-04 11:06 | 55.88879 | 36.20718 | 17677 ft | 383 kts | 267° |
| 2026-05-04 11:06 | 55.88704 | 36.15955 | 18153 ft | 386 kts | 266° |
| 2026-05-04 11:06 | 55.88526 | 36.11156 | 18567 ft | 389 kts | 266° |
| 2026-05-04 11:06 | 55.88347 | 36.06339 | 18960 ft | 391 kts | 266° |
| 2026-05-04 11:08 | 55.86998 | 35.71855 | 21745 ft | 407 kts | 266° |
| 2026-05-04 11:10 | 55.86234 | 35.53230 | 23057 ft | 416 kts | 266° |